This is the latest recevied weather packets stored in our database for station/object DL6JOE-10. If no packets are shown the sender has not sent any weather packets the latest 10 day(s).
| Time | Temp. | Humidity | Pressure | Rain* | Wind** | Luminosity | Snow |
|---|---|---|---|---|---|---|---|
| 1788411487 | 17.22° C | 54% | 968.9 hPa | - | - | - | - |
| 1788410586 | 17.78° C | 54% | 968.9 hPa | - | - | - | - |
| 1788409686 | 17.78° C | 53% | 969 hPa | - | - | - | - |
| 1788408786 | 17.78° C | 53% | 968.9 hPa | - | - | - | - |
| 1788407885 | 17.78° C | 53% | 969 hPa | - | - | - | - |
| 1788406985 | 17.78° C | 52% | 968.8 hPa | - | - | - | - |
| 1788406085 | 17.78° C | 52% | 968.7 hPa | - | - | - | - |
| 1788405185 | 17.78° C | 51% | 968.9 hPa | - | - | - | - |
| 1788404285 | 17.78° C | 51% | 968.9 hPa | - | - | - | - |
| 1788402485 | 18.33° C | 50% | 968.9 hPa | - | - | - | - |
| 1788400685 | 18.33° C | 49% | 968.8 hPa | - | - | - | - |
| 1788377282 | 25° C | 38% | 967.9 hPa | - | - | - | - |
| 1788370982 | 27.22° C | 35% | 966.9 hPa | - | - | - | - |
| 1788366481 | 29.44° C | 32% | 966.5 hPa | - | - | - | - |
| 1788364681 | 29.44° C | 31% | 966.3 hPa | - | - | - | - |
| 1788362881 | 30.56° C | 31% | 966.2 hPa | - | - | - | - |
| 1788361981 | 30.56° C | 32% | 966.1 hPa | - | - | - | - |
| 1788361081 | 30.56° C | 32% | 966.2 hPa | - | - | - | - |
| 1788358380 | 31.67° C | 31% | 966.2 hPa | - | - | - | - |
| 1788357480 | 31.67° C | 30% | 966.3 hPa | - | - | - | - |
| 1788355680 | 31.67° C | 30% | 966.3 hPa | - | - | - | - |
| 1788354780 | 31.67° C | 31% | 966.4 hPa | - | - | - | - |
| 1788353880 | 32.22° C | 30% | 966.6 hPa | - | - | - | - |
| 1788352080 | 31.67° C | 30% | 966.7 hPa | - | - | - | - |
| 1788351180 | 31.11° C | 32% | 966.7 hPa | - | - | - | - |
* Rain since midnight (hover to see other rain measurements)
** Current wind speed in m/s (hover to see current wind gust speed)